ENVR/VRY METAR and TAF weather

Enter ICAO airport designator
Station Type Date Time Source
ENVR METAR 2022/12/08 06:50 UTC NOAA

ENVR 080650Z 09017KT 9999 FEW038 01/M06 Q1008


Station Type Date Time Source
ENVR Decoded METAR 2022/12/08 06:50 UTC NOAA

Station name not available
Dec 08, 2022 - 01:50 AM EST / 2022.12.08 0650 UTC
Wind: from the E (090 degrees) at 20 MPH (17 KT):0
Visibility: greater than 7 mile(s):0
Sky conditions: mostly clear
Temperature: 33 F (1 C)
Windchill: 21 F (-6 C):1
Dew Point: 21 F (-6 C)
Relative Humidity: 59%
Pressure (altimeter): 29.77 in. Hg (1008 hPa)
ob: ENVR 080650Z 09017KT 9999 FEW038 01/M06 Q1008
cycle: 7

Station Type Date Time Source
ENVR TAF UTC NOAA

Error!

Example: see airport list